CheckWX is a tool to help pilots better visualize weather data.  It is not intended as a substitute for an official pre-flight weather briefing.

09:59:26 UTC

CYYC METAR
Calgary International Airport
Calgary, Canada
Current

59 mins ago

CYYC 210900Z 32003KT 300V070 15SM SKC 00/M03 A3009 RMK SLP214
Observed
Mar-21 @ 09:00 UTC
Wind
  • 320° at 3 KTS
Visibility
15 SM
Flight Rules
VFR
Cloud Levels
  • Clear skies
Temperature
C / 32°F
Dewpoint
-3°C / 27°F
Humidity
80%
Altimeter
30.09" Hg
Pressure
1021.4 hPa
Previous

2 hours ago

CYYC 210800Z VRB02KT 15SM SKC 02/M02 A3008 RMK SLP210
Observed
Mar-21 @ 08:00 UTC
Wind
  • Variable at 2 KTS
Visibility
15 SM
Flight Rules
VFR
Cloud Levels
  • Clear skies
Temperature
C / 36°F
Dewpoint
-2°C / 28°F
Humidity
75%
Altimeter
30.08" Hg
Pressure
1021 hPa
Previous

3 hours ago

CYYC 210700Z 00000KT 15SM SKC 01/M02 A3008 RMK SLP212
Observed
Mar-21 @ 07:00 UTC
Visibility
15 SM
Flight Rules
VFR
Cloud Levels
  • Clear skies
Temperature
C / 34°F
Dewpoint
-2°C / 28°F
Humidity
81%
Altimeter
30.08" Hg
Pressure
1021.2 hPa